sensor_id;sensor_type;location;lat;lon;timestamp;pressure;altitude;pressure_sealevel;temperature;humidity
49063;BME280;34876;51.464;-0.150;2023-11-22T00:01:35;102939.09;;;18.04;44.90
49063;BME280;34876;51.464;-0.150;2023-11-22T00:04:05;102939.23;;;18.06;44.87
49063;BME280;34876;51.464;-0.150;2023-11-22T00:06:34;102937.99;;;18.06;44.74
49063;BME280;34876;51.464;-0.150;2023-11-22T00:09:04;102939.79;;;18.06;44.85
49063;BME280;34876;51.464;-0.150;2023-11-22T00:11:34;102941.42;;;18.06;44.77
49063;BME280;34876;51.464;-0.150;2023-11-22T00:14:04;102951.06;;;18.05;44.77
49063;BME280;34876;51.464;-0.150;2023-11-22T00:16:34;102959.04;;;18.07;44.70
49063;BME280;34876;51.464;-0.150;2023-11-22T00:19:04;102964.41;;;18.04;44.84
49063;BME280;34876;51.464;-0.150;2023-11-22T00:21:34;102971.72;;;18.05;44.70
49063;BME280;34876;51.464;-0.150;2023-11-22T00:24:03;102974.19;;;18.05;44.76
49063;BME280;34876;51.464;-0.150;2023-11-22T00:26:32;102970.11;;;18.04;44.63
49063;BME280;34876;51.464;-0.150;2023-11-22T00:29:01;102971.80;;;18.04;44.65
49063;BME280;34876;51.464;-0.150;2023-11-22T00:31:30;102966.89;;;18.03;44.68
49063;BME280;34876;51.464;-0.150;2023-11-22T00:33:59;102965.22;;;18.03;44.65
49063;BME280;34876;51.464;-0.150;2023-11-22T00:36:28;102957.66;;;18.03;44.63
49063;BME280;34876;51.464;-0.150;2023-11-22T00:38:57;102957.72;;;18.03;44.64
49063;BME280;34876;51.464;-0.150;2023-11-22T00:41:30;102967.62;;;18.03;44.63
49063;BME280;34876;51.464;-0.150;2023-11-22T00:43:59;102969.69;;;18.03;44.58
49063;BME280;34876;51.464;-0.150;2023-11-22T00:46:28;102964.38;;;18.02;44.57
49063;BME280;34876;51.464;-0.150;2023-11-22T00:48:57;102959.86;;;18.02;44.57
49063;BME280;34876;51.464;-0.150;2023-11-22T00:51:27;102957.96;;;18.02;44.57
49063;BME280;34876;51.464;-0.150;2023-11-22T00:53:56;102959.46;;;18.02;44.51
49063;BME280;34876;51.464;-0.150;2023-11-22T00:56:26;102960.25;;;18.02;44.56
49063;BME280;34876;51.464;-0.150;2023-11-22T00:58:55;102956.83;;;18.02;44.51
49063;BME280;34876;51.464;-0.150;2023-11-22T01:03:32;102944.35;;;18.02;44.43
49063;BME280;34876;51.464;-0.150;2023-11-22T01:06:01;102951.17;;;18.02;44.37
49063;BME280;34876;51.464;-0.150;2023-11-22T01:08:29;102956.46;;;18.01;44.40
49063;BME280;34876;51.464;-0.150;2023-11-22T01:10:58;102956.60;;;18.03;44.45
49063;BME280;34876;51.464;-0.150;2023-11-22T01:13:27;102956.50;;;18.02;44.38
49063;BME280;34876;51.464;-0.150;2023-11-22T01:15:57;102954.37;;;18.02;44.40
49063;BME280;34876;51.464;-0.150;2023-11-22T01:18:26;102952.53;;;18.02;44.40
49063;BME280;34876;51.464;-0.150;2023-11-22T01:20:56;102956.50;;;18.02;44.36
49063;BME280;34876;51.464;-0.150;2023-11-22T01:23:24;102956.89;;;18.02;44.33
49063;BME280;34876;51.464;-0.150;2023-11-22T01:25:53;102959.80;;;18.02;44.40
49063;BME280;34876;51.464;-0.150;2023-11-22T01:28:22;102959.89;;;18.03;44.36
49063;BME280;34876;51.464;-0.150;2023-11-22T01:30:51;102963.87;;;18.03;44.29
49063;BME280;34876;51.464;-0.150;2023-11-22T01:33:21;102964.43;;;18.03;44.23
49063;BME280;34876;51.464;-0.150;2023-11-22T01:35:50;102967.83;;;18.03;44.36
49063;BME280;34876;51.464;-0.150;2023-11-22T01:38:20;102969.23;;;18.03;44.24
49063;BME280;34876;51.464;-0.150;2023-11-22T01:40:51;102976.74;;;18.03;44.20
49063;BME280;34876;51.464;-0.150;2023-11-22T01:43:21;102982.95;;;18.04;44.20
49063;BME280;34876;51.464;-0.150;2023-11-22T01:45:51;102982.22;;;18.04;44.20
49063;BME280;34876;51.464;-0.150;2023-11-22T01:48:21;102980.83;;;18.03;44.27
49063;BME280;34876;51.464;-0.150;2023-11-22T01:50:50;102982.62;;;18.03;44.22
49063;BME280;34876;51.464;-0.150;2023-11-22T01:53:20;102978.66;;;18.03;44.22
49063;BME280;34876;51.464;-0.150;2023-11-22T01:55:49;102974.56;;;18.03;44.23
49063;BME280;34876;51.464;-0.150;2023-11-22T01:58:19;102976.18;;;18.03;44.20
49063;BME280;34876;51.464;-0.150;2023-11-22T02:00:50;102974.38;;;18.04;44.18
49063;BME280;34876;51.464;-0.150;2023-11-22T02:03:19;102973.84;;;18.03;44.19
49063;BME280;34876;51.464;-0.150;2023-11-22T02:05:49;102975.36;;;18.02;44.13
49063;BME280;34876;51.464;-0.150;2023-11-22T02:08:18;102976.86;;;18.03;44.13
49063;BME280;34876;51.464;-0.150;2023-11-22T02:10:57;102976.25;;;18.03;44.12
49063;BME280;34876;51.464;-0.150;2023-11-22T02:13:26;102980.01;;;18.02;44.22
49063;BME280;34876;51.464;-0.150;2023-11-22T02:15:55;102979.40;;;18.02;44.21
49063;BME280;34876;51.464;-0.150;2023-11-22T02:18:26;102979.18;;;18.02;44.19
49063;BME280;34876;51.464;-0.150;2023-11-22T02:20:55;102983.82;;;18.02;44.18
49063;BME280;34876;51.464;-0.150;2023-11-22T02:23:25;102989.30;;;18.02;44.14
49063;BME280;34876;51.464;-0.150;2023-11-22T02:25:55;102991.04;;;18.02;44.18
49063;BME280;34876;51.464;-0.150;2023-11-22T02:28:24;102988.30;;;18.02;44.11
49063;BME280;34876;51.464;-0.150;2023-11-22T02:30:53;102992.21;;;18.02;44.08
49063;BME280;34876;51.464;-0.150;2023-11-22T02:33:22;102993.06;;;18.02;44.13
49063;BME280;34876;51.464;-0.150;2023-11-22T02:35:51;102987.57;;;18.02;44.10
49063;BME280;34876;51.464;-0.150;2023-11-22T02:38:20;102982.28;;;18.01;44.11
49063;BME280;34876;51.464;-0.150;2023-11-22T02:40:51;102975.56;;;18.00;44.12
49063;BME280;34876;51.464;-0.150;2023-11-22T02:43:21;102970.13;;;18.00;44.11
49063;BME280;34876;51.464;-0.150;2023-11-22T02:45:51;102964.03;;;18.00;44.13
49063;BME280;34876;51.464;-0.150;2023-11-22T02:48:20;102963.44;;;17.99;44.10
49063;BME280;34876;51.464;-0.150;2023-11-22T02:50:49;102961.86;;;18.00;44.13
49063;BME280;34876;51.464;-0.150;2023-11-22T02:53:18;102967.12;;;18.00;44.11
49063;BME280;34876;51.464;-0.150;2023-11-22T02:55:47;102976.26;;;17.99;44.14
49063;BME280;34876;51.464;-0.150;2023-11-22T02:58:16;102982.91;;;18.00;44.08
49063;BME280;34876;51.464;-0.150;2023-11-22T03:00:45;102983.63;;;18.00;44.10
49063;BME280;34876;51.464;-0.150;2023-11-22T03:03:14;102980.57;;;17.99;44.09
49063;BME280;34876;51.464;-0.150;2023-11-22T03:05:42;102987.18;;;17.99;44.07
49063;BME280;34876;51.464;-0.150;2023-11-22T03:08:10;102984.67;;;17.98;44.15
49063;BME280;34876;51.464;-0.150;2023-11-22T03:10:39;102986.19;;;17.98;44.10
49063;BME280;34876;51.464;-0.150;2023-11-22T03:13:08;102983.85;;;18.00;44.03
49063;BME280;34876;51.464;-0.150;2023-11-22T03:15:38;102973.60;;;17.98;44.05
49063;BME280;34876;51.464;-0.150;2023-11-22T03:18:07;102974.88;;;17.98;44.13
49063;BME280;34876;51.464;-0.150;2023-11-22T03:20:36;102970.37;;;17.97;44.09
49063;BME280;34876;51.464;-0.150;2023-11-22T03:23:06;102968.58;;;17.97;44.08
49063;BME280;34876;51.464;-0.150;2023-11-22T03:25:36;102974.68;;;17.96;44.03
49063;BME280;34876;51.464;-0.150;2023-11-22T03:28:05;102977.98;;;17.97;44.11
49063;BME280;34876;51.464;-0.150;2023-11-22T03:30:34;102980.69;;;17.95;44.07
49063;BME280;34876;51.464;-0.150;2023-11-22T03:33:04;102984.45;;;17.95;44.08
49063;BME280;34876;51.464;-0.150;2023-11-22T03:35:34;102988.78;;;17.94;44.14
49063;BME280;34876;51.464;-0.150;2023-11-22T03:38:03;102997.44;;;17.95;44.08
49063;BME280;34876;51.464;-0.150;2023-11-22T03:40:32;103006.79;;;17.95;44.13
49063;BME280;34876;51.464;-0.150;2023-11-22T03:43:01;103013.85;;;17.94;44.10
49063;BME280;34876;51.464;-0.150;2023-11-22T03:45:31;103027.68;;;17.94;44.07
49063;BME280;34876;51.464;-0.150;2023-11-22T03:48:00;103036.43;;;17.93;44.08
49063;BME280;34876;51.464;-0.150;2023-11-22T03:50:29;103029.39;;;17.92;44.10
49063;BME280;34876;51.464;-0.150;2023-11-22T03:53:00;103024.27;;;17.91;44.09
49063;BME280;34876;51.464;-0.150;2023-11-22T03:55:29;103024.45;;;17.90;44.07
49063;BME280;34876;51.464;-0.150;2023-11-22T03:57:58;103024.05;;;17.91;44.08
49063;BME280;34876;51.464;-0.150;2023-11-22T04:00:27;103022.61;;;17.90;44.03
49063;BME280;34876;51.464;-0.150;2023-11-22T04:02:56;103019.88;;;17.89;44.11
49063;BME280;34876;51.464;-0.150;2023-11-22T04:05:27;103017.19;;;17.89;44.06
49063;BME280;34876;51.464;-0.150;2023-11-22T04:07:56;103020.06;;;17.88;44.04
49063;BME280;34876;51.464;-0.150;2023-11-22T04:10:28;103021.76;;;17.87;44.10
49063;BME280;34876;51.464;-0.150;2023-11-22T04:12:59;103022.78;;;17.86;44.05
49063;BME280;34876;51.464;-0.150;2023-11-22T04:15:27;103017.01;;;17.87;44.04
49063;BME280;34876;51.464;-0.150;2023-11-22T04:17:56;103015.86;;;17.85;44.08
49063;BME280;34876;51.464;-0.150;2023-11-22T04:20:25;103017.82;;;17.85;44.05
49063;BME280;34876;51.464;-0.150;2023-11-22T04:22:54;103018.73;;;17.84;44.12
49063;BME280;34876;51.464;-0.150;2023-11-22T04:25:24;103019.59;;;17.83;44.02
49063;BME280;34876;51.464;-0.150;2023-11-22T04:27:53;103023.95;;;17.83;44.11
49063;BME280;34876;51.464;-0.150;2023-11-22T04:30:23;103030.63;;;17.82;44.08
49063;BME280;34876;51.464;-0.150;2023-11-22T04:32:52;103032.54;;;17.82;44.06
49063;BME280;34876;51.464;-0.150;2023-11-22T04:35:20;103036.13;;;17.81;44.08
49063;BME280;34876;51.464;-0.150;2023-11-22T04:37:50;103042.40;;;17.82;44.11
49063;BME280;34876;51.464;-0.150;2023-11-22T04:40:19;103051.07;;;17.82;44.00
49063;BME280;34876;51.464;-0.150;2023-11-22T04:42:51;103044.38;;;17.80;44.08
49063;BME280;34876;51.464;-0.150;2023-11-22T04:45:21;103044.27;;;17.80;44.09
49063;BME280;34876;51.464;-0.150;2023-11-22T04:47:51;103044.28;;;17.80;44.04
49063;BME280;34876;51.464;-0.150;2023-11-22T04:50:20;103040.59;;;17.79;44.00
49063;BME280;34876;51.464;-0.150;2023-11-22T04:52:49;103036.55;;;17.80;44.01
49063;BME280;34876;51.464;-0.150;2023-11-22T04:55:19;103031.87;;;17.79;44.02
49063;BME280;34876;51.464;-0.150;2023-11-22T04:57:49;103027.67;;;17.79;43.97
49063;BME280;34876;51.464;-0.150;2023-11-22T05:00:18;103020.68;;;17.78;43.94
49063;BME280;34876;51.464;-0.150;2023-11-22T05:02:48;103016.28;;;17.77;44.05
49063;BME280;34876;51.464;-0.150;2023-11-22T05:05:21;103017.79;;;17.77;44.03
49063;BME280;34876;51.464;-0.150;2023-11-22T05:07:50;103018.97;;;17.77;44.03
49063;BME280;34876;51.464;-0.150;2023-11-22T05:10:19;103028.49;;;17.77;44.01
49063;BME280;34876;51.464;-0.150;2023-11-22T05:12:49;103033.93;;;17.76;44.02
49063;BME280;34876;51.464;-0.150;2023-11-22T05:15:19;103036.35;;;17.75;44.04
49063;BME280;34876;51.464;-0.150;2023-11-22T05:17:49;103045.46;;;17.76;44.07
49063;BME280;34876;51.464;-0.150;2023-11-22T05:20:18;103037.86;;;17.75;44.01
49063;BME280;34876;51.464;-0.150;2023-11-22T05:22:49;103038.60;;;17.75;43.99
49063;BME280;34876;51.464;-0.150;2023-11-22T05:25:18;103042.97;;;17.74;44.03
49063;BME280;34876;51.464;-0.150;2023-11-22T05:27:47;103044.19;;;17.75;44.02
49063;BME280;34876;51.464;-0.150;2023-11-22T05:30:16;103053.67;;;17.73;44.01
49063;BME280;34876;51.464;-0.150;2023-11-22T05:32:44;103054.47;;;17.73;44.04
49063;BME280;34876;51.464;-0.150;2023-11-22T05:35:14;103043.50;;;17.73;44.03
49063;BME280;34876;51.464;-0.150;2023-11-22T05:37:44;103044.46;;;17.72;43.94
49063;BME280;34876;51.464;-0.150;2023-11-22T05:40:14;103050.46;;;17.71;44.03
49063;BME280;34876;51.464;-0.150;2023-11-22T05:42:44;103050.15;;;17.70;44.01
49063;BME280;34876;51.464;-0.150;2023-11-22T05:45:14;103053.38;;;17.70;43.99
49063;BME280;34876;51.464;-0.150;2023-11-22T05:47:44;103047.14;;;17.69;43.94
49063;BME280;34876;51.464;-0.150;2023-11-22T05:50:13;103047.25;;;17.69;43.92
49063;BME280;34876;51.464;-0.150;2023-11-22T05:52:42;103037.25;;;17.68;43.98
49063;BME280;34876;51.464;-0.150;2023-11-22T05:55:11;103032.84;;;17.67;43.93
49063;BME280;34876;51.464;-0.150;2023-11-22T05:57:41;103038.57;;;17.66;43.96
49063;BME280;34876;51.464;-0.150;2023-11-22T06:00:11;103038.25;;;17.65;44.02
49063;BME280;34876;51.464;-0.150;2023-11-22T06:02:41;103031.26;;;17.65;44.03
49063;BME280;34876;51.464;-0.150;2023-11-22T06:05:11;103017.05;;;17.65;43.97
49063;BME280;34876;51.464;-0.150;2023-11-22T06:07:40;103008.28;;;17.64;44.01
49063;BME280;34876;51.464;-0.150;2023-11-22T06:10:09;103011.21;;;17.63;44.06
49063;BME280;34876;51.464;-0.150;2023-11-22T06:12:39;103014.69;;;17.62;44.00
49063;BME280;34876;51.464;-0.150;2023-11-22T06:15:09;103016.59;;;17.62;43.97
49063;BME280;34876;51.464;-0.150;2023-11-22T06:17:37;103024.49;;;17.61;43.91
49063;BME280;34876;51.464;-0.150;2023-11-22T06:20:08;103021.25;;;17.61;43.95
49063;BME280;34876;51.464;-0.150;2023-11-22T06:22:37;103027.75;;;17.60;43.92
49063;BME280;34876;51.464;-0.150;2023-11-22T06:25:07;103028.59;;;17.61;43.93
49063;BME280;34876;51.464;-0.150;2023-11-22T06:27:36;103030.79;;;17.60;43.83
49063;BME280;34876;51.464;-0.150;2023-11-22T06:30:06;103034.25;;;17.60;43.86
49063;BME280;34876;51.464;-0.150;2023-11-22T06:32:40;103037.34;;;17.59;43.92
49063;BME280;34876;51.464;-0.150;2023-11-22T06:35:10;103037.86;;;17.58;43.88
49063;BME280;34876;51.464;-0.150;2023-11-22T06:37:39;103041.88;;;17.59;43.90
49063;BME280;34876;51.464;-0.150;2023-11-22T06:40:09;103048.09;;;17.59;43.89
49063;BME280;34876;51.464;-0.150;2023-11-22T06:42:39;103055.82;;;17.58;43.87
49063;BME280;34876;51.464;-0.150;2023-11-22T06:45:09;103063.15;;;17.58;43.89
49063;BME280;34876;51.464;-0.150;2023-11-22T06:47:39;103068.99;;;17.57;43.90
49063;BME280;34876;51.464;-0.150;2023-11-22T06:50:10;103066.02;;;17.57;43.84
49063;BME280;34876;51.464;-0.150;2023-11-22T06:52:40;103048.23;;;17.57;43.78
49063;BME280;34876;51.464;-0.150;2023-11-22T06:55:10;103036.44;;;17.56;43.81
49063;BME280;34876;51.464;-0.150;2023-11-22T06:57:39;103043.16;;;17.56;43.80
49063;BME280;34876;51.464;-0.150;2023-11-22T07:00:10;103039.91;;;17.56;43.86
49063;BME280;34876;51.464;-0.150;2023-11-22T07:02:39;103035.72;;;17.56;43.83
49063;BME280;34876;51.464;-0.150;2023-11-22T07:05:08;103035.71;;;17.56;43.77
49063;BME280;34876;51.464;-0.150;2023-11-22T07:07:38;103032.20;;;17.55;43.82
49063;BME280;34876;51.464;-0.150;2023-11-22T07:10:08;103030.18;;;17.55;43.71
49063;BME280;34876;51.464;-0.150;2023-11-22T07:12:38;103028.45;;;17.55;43.81
49063;BME280;34876;51.464;-0.150;2023-11-22T07:15:08;103029.78;;;17.56;43.71
49063;BME280;34876;51.464;-0.150;2023-11-22T07:17:37;103024.96;;;17.57;43.78
49063;BME280;34876;51.464;-0.150;2023-11-22T07:20:15;103023.15;;;17.58;43.65
49063;BME280;34876;51.464;-0.150;2023-11-22T07:22:43;103025.63;;;17.57;43.66
49063;BME280;34876;51.464;-0.150;2023-11-22T07:25:12;103035.87;;;17.57;43.73
49063;BME280;34876;51.464;-0.150;2023-11-22T07:27:42;103051.74;;;17.58;43.73
49063;BME280;34876;51.464;-0.150;2023-11-22T07:30:11;103069.57;;;17.59;43.66
49063;BME280;34876;51.464;-0.150;2023-11-22T07:32:42;103073.83;;;17.58;43.59
49063;BME280;34876;51.464;-0.150;2023-11-22T07:35:11;103071.43;;;17.58;43.68
49063;BME280;34876;51.464;-0.150;2023-11-22T07:37:41;103067.84;;;17.59;43.66
49063;BME280;34876;51.464;-0.150;2023-11-22T07:40:11;103071.59;;;17.59;43.65
49063;BME280;34876;51.464;-0.150;2023-11-22T07:42:41;103074.66;;;17.59;43.72
49063;BME280;34876;51.464;-0.150;2023-11-22T07:45:11;103074.57;;;17.58;43.70
49063;BME280;34876;51.464;-0.150;2023-11-22T07:47:41;103084.80;;;17.59;43.69
49063;BME280;34876;51.464;-0.150;2023-11-22T07:50:10;103084.68;;;17.59;43.62
49063;BME280;34876;51.464;-0.150;2023-11-22T07:52:46;103086.08;;;17.59;43.58
49063;BME280;34876;51.464;-0.150;2023-11-22T07:55:17;103088.97;;;17.60;43.63
49063;BME280;34876;51.464;-0.150;2023-11-22T07:57:48;103087.96;;;17.60;43.62
49063;BME280;34876;51.464;-0.150;2023-11-22T08:00:17;103087.58;;;17.59;43.60
49063;BME280;34876;51.464;-0.150;2023-11-22T08:02:48;103091.70;;;17.61;43.52
49063;BME280;34876;51.464;-0.150;2023-11-22T08:05:18;103092.99;;;17.61;43.46
49063;BME280;34876;51.464;-0.150;2023-11-22T08:07:48;103094.93;;;17.62;43.57
49063;BME280;34876;51.464;-0.150;2023-11-22T08:10:18;103096.49;;;17.62;43.46
49063;BME280;34876;51.464;-0.150;2023-11-22T08:12:48;103103.03;;;17.63;43.50
49063;BME280;34876;51.464;-0.150;2023-11-22T08:15:18;103106.11;;;17.62;43.44
49063;BME280;34876;51.464;-0.150;2023-11-22T08:17:47;103108.78;;;17.63;43.48
49063;BME280;34876;51.464;-0.150;2023-11-22T08:20:17;103109.35;;;17.63;43.43
49063;BME280;34876;51.464;-0.150;2023-11-22T08:22:46;103102.80;;;17.63;43.57
49063;BME280;34876;51.464;-0.150;2023-11-22T08:25:17;103092.80;;;17.62;43.57
49063;BME280;34876;51.464;-0.150;2023-11-22T08:27:46;103098.44;;;17.62;43.50
49063;BME280;34876;51.464;-0.150;2023-11-22T08:30:15;103106.80;;;17.65;43.40
49063;BME280;34876;51.464;-0.150;2023-11-22T08:32:46;103104.54;;;17.63;43.42
49063;BME280;34876;51.464;-0.150;2023-11-22T08:35:15;103096.53;;;17.63;43.48
49063;BME280;34876;51.464;-0.150;2023-11-22T08:37:44;103101.06;;;17.63;43.45
49063;BME280;34876;51.464;-0.150;2023-11-22T08:40:15;103099.04;;;17.64;43.49
49063;BME280;34876;51.464;-0.150;2023-11-22T08:42:44;103089.62;;;17.65;43.43
49063;BME280;34876;51.464;-0.150;2023-11-22T08:45:14;103088.46;;;17.64;43.42
49063;BME280;34876;51.464;-0.150;2023-11-22T08:47:44;103082.95;;;17.66;43.37
49063;BME280;34876;51.464;-0.150;2023-11-22T08:50:14;103085.62;;;17.67;43.36
49063;BME280;34876;51.464;-0.150;2023-11-22T08:52:43;103094.31;;;17.70;43.37
49063;BME280;34876;51.464;-0.150;2023-11-22T08:55:13;103083.68;;;17.69;43.38
49063;BME280;34876;51.464;-0.150;2023-11-22T08:57:42;103068.80;;;17.69;43.34
49063;BME280;34876;51.464;-0.150;2023-11-22T09:00:12;103065.10;;;17.69;43.35
49063;BME280;34876;51.464;-0.150;2023-11-22T09:02:42;103067.23;;;17.69;43.45
49063;BME280;34876;51.464;-0.150;2023-11-22T09:05:11;103079.87;;;17.69;43.34
49063;BME280;34876;51.464;-0.150;2023-11-22T09:07:41;103076.26;;;17.71;43.25
49063;BME280;34876;51.464;-0.150;2023-11-22T09:10:10;103081.03;;;17.74;43.27
49063;BME280;34876;51.464;-0.150;2023-11-22T09:12:42;103069.57;;;17.73;43.33
49063;BME280;34876;51.464;-0.150;2023-11-22T09:15:12;103067.97;;;17.75;43.29
49063;BME280;34876;51.464;-0.150;2023-11-22T09:17:42;103061.31;;;17.75;43.29
49063;BME280;34876;51.464;-0.150;2023-11-22T09:20:12;103054.65;;;17.75;43.28
49063;BME280;34876;51.464;-0.150;2023-11-22T09:22:43;103061.98;;;17.75;43.29
49063;BME280;34876;51.464;-0.150;2023-11-22T09:25:13;103058.49;;;17.76;43.32
49063;BME280;34876;51.464;-0.150;2023-11-22T09:27:43;103056.96;;;17.77;43.31
49063;BME280;34876;51.464;-0.150;2023-11-22T09:30:12;103069.76;;;17.75;43.31
49063;BME280;34876;51.464;-0.150;2023-11-22T09:32:41;103078.64;;;17.76;43.33
49063;BME280;34876;51.464;-0.150;2023-11-22T09:35:11;103078.39;;;17.74;43.34
49063;BME280;34876;51.464;-0.150;2023-11-22T09:37:41;103078.60;;;17.76;43.49
49063;BME280;34876;51.464;-0.150;2023-11-22T09:40:12;103070.79;;;17.74;43.44
49063;BME280;34876;51.464;-0.150;2023-11-22T09:42:42;103065.91;;;17.75;43.55
49063;BME280;34876;51.464;-0.150;2023-11-22T09:45:11;103066.07;;;17.75;43.43
49063;BME280;34876;51.464;-0.150;2023-11-22T09:47:41;103056.78;;;17.75;43.42
49063;BME280;34876;51.464;-0.150;2023-11-22T09:50:10;103051.13;;;17.75;43.38
49063;BME280;34876;51.464;-0.150;2023-11-22T09:52:46;103054.40;;;17.77;43.43
49063;BME280;34876;51.464;-0.150;2023-11-22T09:55:21;103057.31;;;17.77;43.47
49063;BME280;34876;51.464;-0.150;2023-11-22T09:57:58;103053.79;;;17.76;43.46
49063;BME280;34876;51.464;-0.150;2023-11-22T10:00:28;103048.13;;;17.77;43.40
49063;BME280;34876;51.464;-0.150;2023-11-22T10:02:58;103041.40;;;17.78;43.46
49063;BME280;34876;51.464;-0.150;2023-11-22T10:05:27;103037.26;;;17.77;43.44
49063;BME280;34876;51.464;-0.150;2023-11-22T10:07:57;103045.86;;;17.79;43.50
49063;BME280;34876;51.464;-0.150;2023-11-22T10:10:26;103043.01;;;17.78;43.43
49063;BME280;34876;51.464;-0.150;2023-11-22T10:13:00;103037.62;;;17.79;43.42
49063;BME280;34876;51.464;-0.150;2023-11-22T10:15:30;103041.94;;;17.79;43.44
49063;BME280;34876;51.464;-0.150;2023-11-22T10:17:59;103044.49;;;17.80;43.46
49063;BME280;34876;51.464;-0.150;2023-11-22T10:20:36;103043.38;;;17.80;43.40
49063;BME280;34876;51.464;-0.150;2023-11-22T10:23:08;103042.65;;;17.80;43.43
49063;BME280;34876;51.464;-0.150;2023-11-22T10:25:43;103045.01;;;17.79;43.49
49063;BME280;34876;51.464;-0.150;2023-11-22T10:28:13;103040.01;;;17.80;43.45
49063;BME280;34876;51.464;-0.150;2023-11-22T10:30:42;103033.90;;;17.78;43.47
49063;BME280;34876;51.464;-0.150;2023-11-22T10:33:11;103038.11;;;17.77;43.49
49063;BME280;34876;51.464;-0.150;2023-11-22T10:35:42;103034.08;;;17.77;43.54
49063;BME280;34876;51.464;-0.150;2023-11-22T10:38:13;103024.35;;;17.77;43.62
49063;BME280;34876;51.464;-0.150;2023-11-22T10:40:42;103015.09;;;17.78;43.54
49063;BME280;34876;51.464;-0.150;2023-11-22T10:43:12;103004.57;;;17.78;43.54
49063;BME280;34876;51.464;-0.150;2023-11-22T10:45:43;102994.48;;;17.79;43.55
49063;BME280;34876;51.464;-0.150;2023-11-22T10:48:14;102992.69;;;17.79;43.58
49063;BME280;34876;51.464;-0.150;2023-11-22T10:50:43;103006.34;;;17.76;43.66
49063;BME280;34876;51.464;-0.150;2023-11-22T10:53:16;103004.82;;;17.76;43.68
49063;BME280;34876;51.464;-0.150;2023-11-22T10:55:46;103002.48;;;17.76;43.71
49063;BME280;34876;51.464;-0.150;2023-11-22T10:58:18;102986.26;;;17.72;43.80
49063;BME280;34876;51.464;-0.150;2023-11-22T11:00:49;102987.94;;;17.75;43.76
49063;BME280;34876;51.464;-0.150;2023-11-22T11:03:18;102993.71;;;17.78;43.77
49063;BME280;34876;51.464;-0.150;2023-11-22T11:05:52;102990.77;;;17.80;43.65
49063;BME280;34876;51.464;-0.150;2023-11-22T11:08:25;102978.17;;;17.80;43.64
49063;BME280;34876;51.464;-0.150;2023-11-22T11:10:55;102973.12;;;17.81;43.62
49063;BME280;34876;51.464;-0.150;2023-11-22T11:13:25;102973.61;;;17.82;43.54
49063;BME280;34876;51.464;-0.150;2023-11-22T11:15:57;102981.44;;;17.82;43.49
49063;BME280;34876;51.464;-0.150;2023-11-22T11:18:27;102990.45;;;17.82;43.60
49063;BME280;34876;51.464;-0.150;2023-11-22T11:20:58;102991.97;;;17.85;43.45
49063;BME280;34876;51.464;-0.150;2023-11-22T11:23:28;103008.39;;;17.87;43.45
49063;BME280;34876;51.464;-0.150;2023-11-22T11:25:59;103008.05;;;17.87;43.39
49063;BME280;34876;51.464;-0.150;2023-11-22T11:28:42;103004.40;;;17.72;43.71
49063;BME280;34876;51.464;-0.150;2023-11-22T11:31:12;102985.04;;;17.84;43.45
49063;BME280;34876;51.464;-0.150;2023-11-22T11:33:54;102984.55;;;17.83;43.45
49063;BME280;34876;51.464;-0.150;2023-11-22T11:36:24;102973.47;;;17.83;43.47
49063;BME280;34876;51.464;-0.150;2023-11-22T11:38:55;102968.25;;;17.84;43.48
49063;BME280;34876;51.464;-0.150;2023-11-22T11:41:26;102958.25;;;17.83;43.52
49063;BME280;34876;51.464;-0.150;2023-11-22T11:43:56;102947.58;;;17.82;43.60
49063;BME280;34876;51.464;-0.150;2023-11-22T11:46:26;102944.07;;;17.81;43.53
49063;BME280;34876;51.464;-0.150;2023-11-22T11:48:56;102948.81;;;17.82;43.54
49063;BME280;34876;51.464;-0.150;2023-11-22T11:51:26;102946.21;;;17.80;43.61
49063;BME280;34876;51.464;-0.150;2023-11-22T11:53:56;102942.95;;;17.81;43.60
49063;BME280;34876;51.464;-0.150;2023-11-22T11:56:26;102936.18;;;17.81;43.55
49063;BME280;34876;51.464;-0.150;2023-11-22T11:58:57;102929.74;;;17.81;43.61
49063;BME280;34876;51.464;-0.150;2023-11-22T12:01:28;102915.07;;;17.82;43.53
49063;BME280;34876;51.464;-0.150;2023-11-22T12:04:00;102900.45;;;17.82;43.53
49063;BME280;34876;51.464;-0.150;2023-11-22T12:06:30;102873.86;;;17.82;43.49
49063;BME280;34876;51.464;-0.150;2023-11-22T12:09:00;102851.14;;;17.82;43.43
49063;BME280;34876;51.464;-0.150;2023-11-22T12:11:29;102842.96;;;17.83;43.48
49063;BME280;34876;51.464;-0.150;2023-11-22T12:14:00;102846.80;;;17.84;43.42
49063;BME280;34876;51.464;-0.150;2023-11-22T12:16:29;102854.25;;;17.84;43.47
49063;BME280;34876;51.464;-0.150;2023-11-22T12:18:59;102856.65;;;17.81;43.49
49063;BME280;34876;51.464;-0.150;2023-11-22T12:21:30;102860.74;;;17.84;43.52
49063;BME280;34876;51.464;-0.150;2023-11-22T12:24:00;102859.71;;;17.82;43.63
49063;BME280;34876;51.464;-0.150;2023-11-22T12:26:28;102864.03;;;17.34;44.51
49063;BME280;34876;51.464;-0.150;2023-11-22T12:28:58;102871.44;;;17.75;43.75
49063;BME280;34876;51.464;-0.150;2023-11-22T12:31:29;102880.53;;;17.79;43.75
49063;BME280;34876;51.464;-0.150;2023-11-22T12:33:58;102894.30;;;17.79;43.65
49063;BME280;34876;51.464;-0.150;2023-11-22T12:36:29;102910.75;;;17.79;43.86
49063;BME280;34876;51.464;-0.150;2023-11-22T12:38:58;102916.10;;;17.80;43.79
49063;BME280;34876;51.464;-0.150;2023-11-22T12:41:27;102913.46;;;17.81;43.82
49063;BME280;34876;51.464;-0.150;2023-11-22T12:44:05;102905.15;;;17.79;44.21
49063;BME280;34876;51.464;-0.150;2023-11-22T12:46:48;102899.74;;;17.81;44.04
49063;BME280;34876;51.464;-0.150;2023-11-22T12:49:17;102892.09;;;17.83;43.90
49063;BME280;34876;51.464;-0.150;2023-11-22T12:51:48;102884.83;;;17.85;43.79
49063;BME280;34876;51.464;-0.150;2023-11-22T12:54:18;102887.50;;;17.86;43.73
49063;BME280;34876;51.464;-0.150;2023-11-22T12:56:48;102874.71;;;17.85;43.68